createdAt,value
2017-10-30T00:01:18.577Z,52.55
2017-10-30T00:03:45.172Z,52.73
2017-10-30T00:06:11.836Z,52.93
2017-10-30T00:08:38.430Z,52.77
2017-10-30T00:11:04.670Z,51.92
2017-10-30T00:13:30.894Z,52.67
2017-10-30T00:15:57.154Z,52.77
2017-10-30T00:18:23.378Z,52.53
2017-10-30T00:20:49.607Z,53.67
2017-10-30T00:23:16.081Z,52.90
2017-10-30T00:25:42.647Z,54.00
2017-10-30T00:28:09.105Z,51.74
2017-10-30T00:30:35.741Z,52.37
2017-10-30T00:33:01.999Z,52.27
2017-10-30T00:35:28.591Z,53.06
2017-10-30T00:37:55.108Z,52.51
2017-10-30T00:40:21.550Z,52.73
2017-10-30T00:42:48.113Z,53.83
2017-10-30T00:45:14.732Z,52.27
2017-10-30T00:47:41.148Z,52.86
2017-10-30T00:50:07.566Z,54.76
2017-10-30T00:52:34.032Z,54.17
2017-10-30T00:55:00.486Z,54.25
2017-10-30T00:57:27.119Z,54.47
2017-10-30T00:59:53.609Z,54.78
2017-10-30T01:02:20.050Z,54.69
2017-10-30T01:04:46.492Z,55.32
2017-10-30T01:07:12.909Z,55.63
2017-10-30T01:09:39.350Z,55.96
2017-10-30T01:12:05.792Z,54.73
2017-10-30T01:14:32.210Z,55.13
2017-10-30T01:16:58.800Z,55.57
2017-10-30T01:19:25.436Z,53.96
2017-10-30T01:21:52.058Z,54.35
2017-10-30T01:24:18.511Z,55.40
2017-10-30T01:26:44.994Z,55.19
2017-10-30T01:29:11.535Z,55.76
2017-10-30T01:31:38.003Z,56.75
2017-10-30T01:34:04.647Z,55.24
2017-10-30T01:36:31.080Z,56.37
2017-10-30T01:38:57.724Z,55.64
2017-10-30T01:41:24.019Z,55.57
2017-10-30T01:43:50.383Z,55.69
2017-10-30T01:46:17.001Z,56.07
2017-10-30T01:48:43.443Z,56.68
2017-10-30T01:51:10.093Z,55.98
2017-10-30T01:53:36.704Z,56.55
2017-10-30T01:56:03.148Z,55.67
2017-10-30T01:58:29.667Z,56.76
2017-10-30T02:00:56.104Z,56.73
2017-10-30T02:03:22.519Z,56.66
2017-10-30T02:05:48.961Z,57.23
2017-10-30T02:08:15.480Z,57.73
2017-10-30T02:10:41.821Z,57.50
2017-10-30T02:13:08.261Z,57.96
2017-10-30T02:15:34.679Z,57.76
2017-10-30T02:18:01.121Z,57.92
2017-10-30T02:20:27.568Z,58.24
2017-10-30T02:22:54.006Z,58.37
2017-10-30T02:25:20.521Z,59.38
2017-10-30T02:27:46.814Z,57.69
2017-10-30T02:30:13.245Z,57.78
2017-10-30T02:32:39.870Z,58.07
2017-10-30T02:35:06.364Z,57.85
2017-10-30T02:37:32.817Z,58.76
2017-10-30T02:39:59.220Z,58.37
2017-10-30T02:42:25.665Z,57.39
2017-10-30T02:44:52.111Z,57.96
2017-10-30T02:47:18.621Z,58.12
2017-10-30T02:49:45.088Z,57.88
2017-10-30T02:52:11.530Z,58.64
2017-10-30T02:54:37.977Z,58.24
2017-10-30T02:57:04.616Z,58.86
2017-10-30T02:59:31.232Z,58.86
2017-10-30T03:01:57.690Z,58.87
2017-10-30T03:04:24.120Z,58.70
2017-10-30T03:06:50.340Z,59.61
2017-10-30T03:09:16.749Z,59.74
2017-10-30T03:11:43.217Z,60.70
2017-10-30T03:14:09.709Z,60.02
2017-10-30T03:16:36.273Z,61.14
2017-10-30T03:19:02.924Z,61.23
2017-10-30T03:21:29.153Z,60.38
2017-10-30T03:23:55.799Z,61.03
2017-10-30T03:26:22.433Z,60.96
2017-10-30T03:28:49.059Z,60.93
2017-10-30T03:31:15.503Z,61.22
2017-10-30T03:33:42.117Z,61.68
2017-10-30T03:36:08.573Z,61.87
2017-10-30T03:38:35.216Z,61.65
2017-10-30T03:41:01.842Z,61.73
2017-10-30T03:43:28.084Z,62.20
2017-10-30T03:45:54.516Z,61.91
2017-10-30T03:48:21.143Z,62.31
2017-10-30T03:50:47.791Z,62.82
2017-10-30T03:53:14.275Z,63.07
2017-10-30T03:55:40.719Z,63.14
2017-10-30T03:58:07.134Z,62.85
2017-10-30T04:00:33.728Z,62.90
2017-10-30T04:03:00.365Z,63.34
2017-10-30T04:05:26.855Z,63.92
2017-10-30T04:07:53.277Z,63.96
2017-10-30T04:10:19.744Z,63.04
2017-10-30T04:12:46.099Z,62.82
2017-10-30T04:15:12.535Z,63.44
2017-10-30T04:17:38.810Z,63.41
2017-10-30T04:20:05.385Z,62.38
2017-10-30T04:22:31.935Z,62.39
2017-10-30T04:24:58.373Z,62.77
2017-10-30T04:27:25.013Z,62.84
2017-10-30T04:29:51.629Z,62.39
2017-10-30T04:32:18.069Z,63.85
2017-10-30T04:34:44.564Z,62.85
2017-10-30T04:37:11.003Z,62.01
2017-10-30T04:39:37.482Z,62.18
2017-10-30T04:42:04.121Z,62.20
2017-10-30T04:44:30.728Z,60.78
2017-10-30T04:46:57.145Z,60.42
2017-10-30T04:49:23.587Z,60.00
2017-10-30T04:51:50.006Z,59.77
2017-10-30T04:54:17.005Z,60.19
2017-10-30T04:56:43.649Z,59.01
2017-10-30T04:59:10.155Z,59.33
2017-10-30T05:01:36.818Z,59.46
2017-10-30T05:04:03.337Z,59.24
2017-10-30T05:06:29.778Z,60.14
2017-10-30T05:08:56.271Z,59.20
2017-10-30T05:11:22.652Z,58.31
2017-10-30T05:13:49.076Z,58.72
2017-10-30T05:16:15.723Z,57.79
2017-10-30T05:18:42.159Z,57.94
2017-10-30T05:21:08.786Z,53.76
2017-10-30T05:23:35.437Z,49.70
2017-10-30T05:26:01.940Z,46.48
2017-10-30T05:28:28.455Z,46.15
2017-10-30T05:30:54.897Z,43.67
2017-10-30T05:33:21.365Z,40.92
2017-10-30T05:35:48.006Z,39.71
2017-10-30T05:38:14.647Z,38.59
2017-10-30T05:40:41.140Z,37.30
2017-10-30T05:43:07.581Z,38.11
2017-10-30T05:45:33.956Z,38.68
2017-10-30T05:48:00.587Z,37.00
2017-10-30T05:50:27.083Z,35.55
2017-10-30T05:52:53.524Z,34.11
2017-10-30T05:55:19.942Z,34.55
2017-10-30T05:57:46.383Z,34.51
2017-10-30T06:00:12.960Z,34.46
2017-10-30T06:02:39.566Z,33.83
2017-10-30T06:05:06.011Z,33.61
2017-10-30T06:07:32.676Z,33.47
2017-10-30T06:09:59.194Z,32.95
2017-10-30T06:12:25.537Z,32.00
2017-10-30T06:14:51.999Z,32.40
2017-10-30T06:17:18.612Z,32.03
2017-10-30T06:19:45.087Z,31.36
2017-10-30T06:22:11.551Z,32.51
2017-10-30T06:24:38.069Z,32.47
2017-10-30T06:27:04.403Z,31.86
2017-10-30T06:29:30.955Z,31.99
2017-10-30T06:31:57.372Z,31.84
2017-10-30T06:34:23.737Z,31.32
2017-10-30T06:36:50.239Z,31.36
2017-10-30T06:39:16.671Z,31.92
2017-10-30T06:41:43.111Z,30.48
2017-10-30T06:44:09.785Z,31.01
2017-10-30T06:46:36.398Z,29.51
2017-10-30T06:49:02.814Z,30.20
2017-10-30T06:51:29.255Z,31.16
2017-10-30T06:53:55.518Z,31.09
2017-10-30T06:56:22.040Z,30.76
2017-10-30T06:58:48.702Z,29.93
2017-10-30T07:01:15.174Z,28.81
2017-10-30T07:03:41.764Z,29.63
2017-10-30T07:06:08.383Z,29.87
2017-10-30T07:08:34.940Z,29.83
2017-10-30T07:11:01.440Z,30.85
2017-10-30T07:13:28.113Z,32.05
2017-10-30T07:15:54.749Z,30.94
2017-10-30T07:18:21.369Z,31.45
2017-10-30T07:20:48.027Z,30.37
2017-10-30T07:23:14.571Z,30.22
2017-10-30T07:25:41.070Z,31.10
2017-10-30T07:28:07.586Z,30.44
2017-10-30T07:30:34.152Z,30.21
2017-10-30T07:33:00.670Z,29.71
2017-10-30T07:35:27.138Z,30.31
2017-10-30T07:37:53.984Z,31.25
2017-10-30T07:40:20.416Z,29.84
2017-10-30T07:42:46.911Z,30.04
2017-10-30T07:45:13.284Z,30.19
2017-10-30T07:47:39.716Z,26.85
2017-10-30T07:50:06.215Z,28.39
2017-10-30T07:52:32.787Z,28.55
2017-10-30T07:54:59.220Z,27.90
2017-10-30T07:57:25.839Z,27.37
2017-10-30T07:59:52.257Z,26.50
2017-10-30T08:02:18.675Z,28.12
2017-10-30T08:04:45.366Z,27.84
2017-10-30T08:07:11.798Z,29.94
2017-10-30T08:09:38.299Z,31.95
2017-10-30T08:12:04.715Z,31.59
2017-10-30T08:14:31.159Z,30.99
2017-10-30T08:16:57.675Z,30.92
2017-10-30T08:19:24.113Z,28.43
2017-10-30T08:21:50.560Z,28.07
2017-10-30T08:24:17.032Z,28.55
2017-10-30T08:26:43.517Z,28.61
2017-10-30T08:29:09.961Z,29.51
2017-10-30T08:31:36.344Z,29.03
2017-10-30T08:34:02.819Z,29.62
2017-10-30T08:36:29.261Z,29.16
2017-10-30T08:38:55.702Z,28.63
2017-10-30T08:41:22.121Z,30.18
2017-10-30T08:43:48.708Z,29.46
2017-10-30T08:46:15.324Z,28.37
2017-10-30T08:48:41.982Z,29.68
2017-10-30T08:51:08.464Z,27.75
2017-10-30T08:53:35.057Z,27.46
2017-10-30T08:56:01.447Z,27.97
2017-10-30T08:58:27.787Z,28.70
2017-10-30T09:00:54.357Z,27.46
2017-10-30T09:03:20.973Z,27.37
2017-10-30T09:05:47.389Z,28.16
2017-10-30T09:08:13.832Z,28.91
2017-10-30T09:10:40.349Z,28.62
2017-10-30T09:13:06.799Z,27.46
2017-10-30T09:15:33.234Z,28.56
2017-10-30T09:17:59.749Z,27.91
2017-10-30T09:20:26.190Z,27.54
2017-10-30T09:22:52.534Z,26.91
2017-10-30T09:25:19.050Z,28.19
2017-10-30T09:27:45.496Z,28.12
2017-10-30T09:30:11.835Z,28.25
2017-10-30T09:32:38.250Z,28.09
2017-10-30T09:35:04.718Z,27.04
2017-10-30T09:37:31.265Z,26.57
2017-10-30T09:39:57.748Z,27.14
2017-10-30T09:42:24.316Z,27.46
2017-10-30T09:44:50.737Z,26.20
2017-10-30T09:47:17.411Z,26.11
2017-10-30T09:49:44.051Z,25.82
2017-10-30T09:52:10.664Z,25.99
2017-10-30T09:54:37.182Z,26.96
2017-10-30T09:57:03.622Z,24.80
2017-10-30T09:59:30.036Z,26.18
2017-10-30T10:01:56.476Z,26.81
2017-10-30T10:04:23.081Z,26.30
2017-10-30T10:06:49.666Z,26.66
2017-10-30T10:09:16.307Z,26.96
2017-10-30T10:11:42.726Z,25.61
2017-10-30T10:14:09.166Z,24.63
2017-10-30T10:16:35.846Z,26.58
2017-10-30T10:19:02.324Z,26.99
2017-10-30T10:21:28.911Z,24.95
2017-10-30T10:23:55.530Z,25.90
2017-10-30T10:26:21.932Z,25.21
2017-10-30T10:28:48.367Z,24.70
2017-10-30T10:31:15.032Z,29.73
2017-10-30T10:33:41.703Z,27.13
2017-10-30T10:36:08.362Z,25.76
2017-10-30T10:38:34.970Z,25.34
2017-10-30T10:41:01.455Z,25.28
2017-10-30T10:43:28.038Z,24.46
2017-10-30T10:45:54.663Z,24.71
2017-10-30T10:48:21.316Z,23.86
2017-10-30T10:50:47.820Z,23.96
2017-10-30T10:53:14.338Z,23.43
2017-10-30T10:55:40.781Z,24.77
2017-10-30T10:58:07.459Z,25.34
2017-10-30T11:00:34.098Z,26.43
2017-10-30T11:03:00.344Z,26.84
2017-10-30T11:05:26.593Z,25.10
2017-10-30T11:07:52.874Z,25.17
2017-10-30T11:10:19.095Z,25.57
2017-10-30T11:12:45.351Z,26.61
2017-10-30T11:15:11.628Z,27.36
2017-10-30T11:17:37.860Z,28.54
2017-10-30T11:20:04.087Z,30.44
2017-10-30T11:22:30.363Z,30.47
2017-10-30T11:24:56.600Z,27.45
2017-10-30T11:27:22.902Z,27.49
2017-10-30T11:29:49.543Z,25.03
2017-10-30T11:32:15.960Z,27.52
2017-10-30T11:34:42.423Z,28.60
2017-10-30T11:37:09.043Z,30.33
2017-10-30T11:39:35.293Z,31.02
2017-10-30T11:42:01.777Z,31.22
2017-10-30T11:44:28.222Z,31.16
2017-10-30T11:46:54.661Z,31.72
2017-10-30T11:49:21.230Z,32.10
2017-10-30T11:51:47.663Z,33.83
2017-10-30T11:54:14.164Z,31.98
2017-10-30T11:56:40.728Z,32.30
2017-10-30T11:59:07.247Z,32.19
2017-10-30T12:01:33.769Z,30.96
2017-10-30T12:04:00.106Z,31.65
2017-10-30T12:06:26.622Z,32.85
2017-10-30T12:08:52.966Z,33.81
2017-10-30T12:11:19.541Z,31.54
2017-10-30T12:13:46.177Z,28.50
2017-10-30T12:16:12.667Z,26.24
2017-10-30T12:18:39.109Z,27.42
2017-10-30T12:21:05.624Z,25.07
2017-10-30T12:23:32.068Z,24.46
2017-10-30T12:25:58.409Z,24.51
2017-10-30T12:28:24.773Z,25.73
2017-10-30T12:30:51.391Z,26.25
2017-10-30T12:33:17.813Z,24.93
2017-10-30T12:35:44.490Z,24.18
2017-10-30T12:38:10.924Z,24.74
2017-10-30T12:40:37.314Z,24.89
2017-10-30T12:43:03.992Z,25.68
2017-10-30T12:45:30.494Z,26.39
2017-10-30T12:47:56.861Z,26.47
2017-10-30T12:50:23.110Z,25.28
2017-10-30T12:52:49.525Z,27.40
2017-10-30T12:55:16.138Z,26.03
2017-10-30T12:57:42.826Z,28.34
2017-10-30T13:00:09.625Z,26.74
2017-10-30T13:02:36.063Z,27.89
2017-10-30T13:05:02.556Z,26.89
2017-10-30T13:07:28.777Z,26.76
2017-10-30T13:09:55.004Z,27.21
2017-10-30T13:12:21.276Z,26.38
2017-10-30T13:14:47.795Z,26.77
2017-10-30T13:17:14.241Z,26.49
2017-10-30T13:19:40.534Z,27.00
2017-10-30T13:22:06.765Z,27.79
2017-10-30T13:36:32.215Z,30.11
2017-10-30T13:38:58.717Z,30.27
2017-10-30T13:41:25.372Z,32.57
2017-10-30T13:43:52.016Z,33.46
2017-10-30T13:46:18.494Z,33.62
2017-10-30T13:48:44.973Z,34.95
2017-10-30T13:51:11.489Z,35.27
2017-10-30T13:53:37.907Z,33.44
2017-10-30T13:56:04.349Z,34.60
2017-10-30T13:58:31.033Z,34.44
2017-10-30T14:00:57.265Z,35.92
2017-10-30T14:03:23.775Z,37.69
2017-10-30T14:05:50.191Z,38.08
2017-10-30T14:08:16.634Z,38.62
2017-10-30T14:10:43.050Z,37.54
2017-10-30T14:13:09.569Z,38.63
2017-10-30T14:15:36.039Z,39.41
2017-10-30T14:18:02.500Z,38.43
2017-10-30T14:20:28.992Z,39.11
2017-10-30T14:22:55.572Z,38.54
2017-10-30T14:25:22.015Z,36.80
2017-10-30T14:27:48.430Z,36.65
2017-10-30T14:30:15.075Z,37.48
2017-10-30T14:32:41.306Z,37.51
2017-10-30T14:35:07.920Z,37.24
2017-10-30T14:37:34.362Z,39.01
2017-10-30T14:40:00.811Z,37.78
2017-10-30T14:42:27.293Z,38.92
2017-10-30T14:44:53.736Z,38.82
2017-10-30T14:47:20.186Z,39.90
2017-10-30T14:49:46.693Z,40.13
2017-10-30T14:52:13.137Z,40.15
2017-10-30T14:54:39.369Z,41.08
2017-10-30T14:57:05.645Z,40.77
2017-10-30T14:59:31.860Z,40.39
2017-10-30T15:01:58.105Z,41.10
2017-10-30T15:04:24.384Z,41.32
2017-10-30T15:06:50.616Z,42.70
2017-10-30T15:09:16.842Z,41.67
2017-10-30T15:11:43.212Z,41.49
2017-10-30T15:14:09.447Z,42.16
2017-10-30T15:16:35.702Z,43.53
2017-10-30T15:19:01.974Z,43.41
2017-10-30T15:21:28.246Z,43.82
2017-10-30T15:23:54.478Z,43.20
2017-10-30T15:26:20.741Z,44.08
2017-10-30T15:28:46.971Z,44.24
2017-10-30T15:31:13.192Z,45.21
2017-10-30T15:33:39.455Z,45.09
2017-10-30T15:36:05.679Z,45.47
2017-10-30T15:38:31.909Z,45.43
2017-10-30T15:40:58.178Z,46.31
2017-10-30T15:43:24.601Z,46.72
2017-10-30T15:45:51.083Z,45.74
2017-10-30T15:48:17.670Z,46.19
2017-10-30T15:50:44.307Z,46.11
2017-10-30T15:53:10.658Z,46.13
2017-10-30T15:55:37.125Z,47.10
2017-10-30T15:58:03.566Z,46.09
2017-10-30T16:00:29.984Z,45.92
2017-10-30T16:02:56.229Z,46.03
2017-10-30T16:05:22.446Z,45.95
2017-10-30T16:07:48.687Z,46.83
2017-10-30T16:10:14.968Z,46.67
2017-10-30T16:12:41.280Z,45.49
2017-10-30T16:15:07.483Z,45.73
2017-10-30T16:17:33.724Z,45.86
2017-10-30T16:19:59.957Z,46.10
2017-10-30T16:22:26.208Z,45.94
2017-10-30T16:24:52.472Z,46.51
2017-10-30T16:27:18.676Z,47.16
2017-10-30T16:29:44.898Z,46.87
2017-10-30T16:32:11.301Z,46.21
2017-10-30T16:34:37.526Z,46.65
2017-10-30T16:37:03.756Z,46.69
2017-10-30T16:39:30.022Z,47.09
2017-10-30T16:41:56.257Z,48.14
2017-10-30T16:44:22.491Z,47.31
2017-10-30T16:46:48.755Z,47.05
2017-10-30T16:49:14.979Z,47.16
2017-10-30T16:51:41.214Z,46.53
2017-10-30T16:54:07.563Z,46.80
2017-10-30T16:56:33.801Z,47.08
2017-10-30T16:59:00.044Z,46.02
2017-10-30T17:01:26.343Z,45.55
2017-10-30T17:03:52.570Z,46.94
2017-10-30T17:06:18.816Z,46.56
2017-10-30T17:08:45.068Z,47.47
2017-10-30T17:11:11.309Z,46.55
2017-10-30T17:13:37.621Z,47.19
2017-10-30T17:16:03.926Z,46.97
2017-10-30T17:18:30.154Z,46.13
2017-10-30T17:20:56.382Z,48.11
2017-10-30T17:23:22.657Z,46.54
2017-10-30T17:25:48.876Z,47.21
2017-10-30T17:28:15.108Z,47.18
2017-10-30T17:30:41.386Z,46.28
2017-10-30T17:33:07.609Z,46.90
2017-10-30T17:35:33.839Z,46.07
2017-10-30T17:38:00.099Z,47.08
2017-10-30T17:40:26.334Z,47.44
2017-10-30T17:42:52.590Z,47.14
2017-10-30T17:45:18.858Z,46.02
2017-10-30T17:47:45.080Z,46.46
2017-10-30T17:50:11.320Z,47.18
2017-10-30T17:52:37.627Z,46.13
2017-10-30T17:55:03.868Z,47.01
2017-10-30T17:57:30.146Z,47.01
2017-10-30T17:59:56.465Z,47.77
2017-10-30T18:02:22.690Z,47.91
2017-10-30T18:04:48.936Z,47.15
2017-10-30T18:07:15.281Z,47.99
2017-10-30T18:09:41.515Z,48.84
2017-10-30T18:12:07.762Z,47.53
2017-10-30T18:14:34.042Z,46.82
2017-10-30T18:17:00.317Z,47.46
2017-10-30T18:19:26.556Z,47.67
2017-10-30T18:21:52.827Z,48.36
2017-10-30T18:24:19.274Z,47.47
2017-10-30T18:26:45.526Z,47.68
2017-10-30T18:29:11.804Z,47.57
2017-10-30T18:31:38.028Z,47.15
2017-10-30T18:34:04.260Z,47.83
2017-10-30T18:36:30.526Z,48.20
2017-10-30T18:38:56.747Z,48.39
2017-10-30T18:41:22.988Z,47.52
2017-10-30T18:43:49.275Z,47.91
2017-10-30T18:46:15.512Z,48.52
2017-10-30T18:48:41.750Z,47.73
2017-10-30T18:51:08.030Z,48.20
2017-10-30T18:53:34.271Z,49.05
2017-10-30T18:56:00.504Z,48.50
2017-10-30T18:58:26.790Z,47.36
2017-10-30T19:00:53.013Z,47.07
2017-10-30T19:03:19.259Z,47.01
2017-10-30T19:05:45.512Z,46.74
2017-10-30T19:08:11.735Z,47.14
2017-10-30T19:10:38.025Z,46.72
2017-10-30T19:13:04.311Z,47.51
2017-10-30T19:15:30.669Z,47.93
2017-10-30T19:17:56.904Z,48.14
2017-10-30T19:20:23.192Z,47.52
2017-10-30T19:22:49.414Z,48.83
2017-10-30T19:25:15.659Z,49.21
2017-10-30T19:27:41.955Z,47.54
2017-10-30T19:30:08.179Z,47.62
2017-10-30T19:32:34.423Z,48.05
2017-10-30T19:35:00.703Z,48.49
2017-10-30T19:37:26.936Z,47.67
2017-10-30T19:39:53.145Z,46.92
2017-10-30T19:42:19.409Z,46.75
2017-10-30T19:44:45.638Z,47.19
2017-10-30T19:47:11.867Z,47.41
2017-10-30T19:49:38.145Z,47.21
2017-10-30T19:52:04.560Z,47.47
2017-10-30T19:54:30.856Z,47.85
2017-10-30T19:56:57.274Z,47.52
2017-10-30T19:59:23.503Z,47.97
2017-10-30T20:01:49.744Z,48.02
2017-10-30T20:04:16.031Z,49.14
2017-10-30T20:06:42.254Z,48.59
2017-10-30T20:09:08.483Z,48.81
2017-10-30T20:11:34.727Z,48.43
2017-10-30T20:14:00.959Z,49.34
2017-10-30T20:16:27.191Z,48.96
2017-10-30T20:18:53.470Z,48.86
2017-10-30T20:21:19.701Z,48.87
2017-10-30T20:23:45.924Z,52.12
2017-10-30T20:26:12.328Z,48.83
2017-10-30T20:28:38.558Z,49.72
2017-10-30T20:31:05.036Z,49.74
2017-10-30T20:33:31.320Z,49.84
2017-10-30T20:35:57.560Z,50.94
2017-10-30T20:38:23.801Z,49.52
2017-10-30T20:40:50.073Z,50.08
2017-10-30T20:43:16.305Z,50.27
2017-10-30T20:45:42.540Z,50.13
2017-10-30T20:48:08.813Z,50.53
2017-10-30T20:50:35.050Z,50.95
2017-10-30T20:53:01.346Z,50.95
2017-10-30T20:55:27.637Z,51.04
2017-10-30T20:57:53.884Z,52.20
2017-10-30T21:00:20.122Z,52.31
2017-10-30T21:02:46.420Z,51.96
2017-10-30T21:05:12.683Z,52.63
2017-10-30T21:07:38.929Z,53.06
2017-10-30T21:10:05.196Z,52.62
2017-10-30T21:12:31.417Z,52.83
2017-10-30T21:14:57.655Z,53.24
2017-10-30T21:17:23.938Z,53.16
2017-10-30T21:19:50.159Z,52.56
2017-10-30T21:22:16.379Z,52.29
2017-10-30T21:24:42.653Z,52.42
2017-10-30T21:27:08.904Z,52.93
2017-10-30T21:29:35.136Z,52.30
2017-10-30T21:32:01.420Z,53.05
2017-10-30T21:34:27.652Z,53.49
2017-10-30T21:36:53.890Z,53.95
2017-10-30T21:39:20.147Z,52.50
2017-10-30T21:41:46.380Z,52.53
2017-10-30T21:44:12.634Z,52.98
2017-10-30T21:46:38.921Z,53.69
2017-10-30T21:49:05.171Z,52.36
2017-10-30T21:51:31.426Z,52.96
2017-10-30T21:53:57.709Z,54.14
2017-10-30T21:56:23.947Z,53.51
2017-10-30T21:58:50.188Z,53.26
2017-10-30T22:01:16.586Z,53.17
2017-10-30T22:03:42.830Z,53.77
2017-10-30T22:06:09.248Z,53.64
2017-10-30T22:08:35.537Z,53.64
2017-10-30T22:11:01.778Z,54.37
2017-10-30T22:13:27.992Z,53.83
2017-10-30T22:15:54.287Z,53.66
2017-10-30T22:18:20.520Z,53.63
2017-10-30T22:20:46.749Z,53.76
2017-10-30T22:23:13.027Z,52.81
2017-10-30T22:25:39.261Z,53.21
2017-10-30T22:28:05.492Z,52.35
2017-10-30T22:30:31.775Z,52.83
2017-10-30T22:32:58.004Z,53.33
2017-10-30T22:35:24.230Z,52.53
2017-10-30T22:37:50.512Z,52.28
2017-10-30T22:40:16.769Z,52.44
2017-10-30T22:42:43.007Z,53.98
2017-10-30T22:45:09.302Z,52.59
2017-10-30T22:47:35.554Z,52.83
2017-10-30T22:50:01.779Z,52.84
2017-10-30T22:52:28.047Z,52.79
2017-10-30T22:54:54.297Z,53.35
2017-10-30T22:57:20.560Z,54.09
2017-10-30T22:59:46.892Z,54.27
2017-10-30T23:02:13.139Z,54.55
2017-10-30T23:04:39.394Z,54.98
2017-10-30T23:07:05.684Z,55.74
2017-10-30T23:09:32.015Z,54.93
2017-10-30T23:11:58.242Z,55.02
2017-10-30T23:14:24.531Z,55.61
2017-10-30T23:16:50.764Z,57.10
2017-10-30T23:19:17.004Z,56.27
2017-10-30T23:21:43.294Z,56.73
2017-10-30T23:24:09.534Z,57.03
2017-10-30T23:26:35.775Z,56.56
2017-10-30T23:29:02.055Z,57.27
2017-10-30T23:31:28.296Z,57.05
2017-10-30T23:33:54.543Z,57.39
2017-10-30T23:36:20.833Z,56.49
2017-10-30T23:38:47.062Z,56.77
2017-10-30T23:41:13.297Z,55.46
2017-10-30T23:43:39.608Z,55.53
2017-10-30T23:46:05.852Z,55.87
2017-10-30T23:48:32.101Z,56.30
2017-10-30T23:50:58.373Z,55.36
2017-10-30T23:53:24.606Z,56.01
2017-10-30T23:55:50.847Z,57.15
2017-10-30T23:58:17.160Z,55.85
